sensor_id;sensor_type;location;lat;lon;timestamp;pressure;altitude;pressure_sealevel;temperature;humidity
21182;BME280;10749;46.296;7.524;2022-08-21T00:01:25;95107.84;;;20.73;51.86
21182;BME280;10749;46.296;7.524;2022-08-21T00:03:52;95097.09;;;20.73;51.84
21182;BME280;10749;46.296;7.524;2022-08-21T00:06:17;95092.19;;;20.70;52.04
21182;BME280;10749;46.296;7.524;2022-08-21T00:08:43;95090.56;;;20.69;52.03
21182;BME280;10749;46.296;7.524;2022-08-21T00:11:09;95097.56;;;20.70;52.07
21182;BME280;10749;46.296;7.524;2022-08-21T00:13:35;95086.69;;;20.65;52.15
21182;BME280;10749;46.296;7.524;2022-08-21T00:16:01;95084.59;;;20.55;52.20
21182;BME280;10749;46.296;7.524;2022-08-21T00:18:26;95082.16;;;20.54;52.54
21182;BME280;10749;46.296;7.524;2022-08-21T00:20:52;95094.44;;;20.50;52.87
21182;BME280;10749;46.296;7.524;2022-08-21T00:23:17;95095.47;;;20.49;52.90
21182;BME280;10749;46.296;7.524;2022-08-21T00:25:44;95092.44;;;20.45;52.79
21182;BME280;10749;46.296;7.524;2022-08-21T00:28:09;95090.34;;;20.36;53.41
21182;BME280;10749;46.296;7.524;2022-08-21T00:30:35;95089.28;;;20.37;52.88
21182;BME280;10749;46.296;7.524;2022-08-21T00:33:02;95090.19;;;20.42;52.87
21182;BME280;10749;46.296;7.524;2022-08-21T00:35:31;95093.25;;;20.46;52.97
21182;BME280;10749;46.296;7.524;2022-08-21T00:37:58;95083.56;;;20.45;52.89
21182;BME280;10749;46.296;7.524;2022-08-21T00:40:33;95091.03;;;20.43;53.56
21182;BME280;10749;46.296;7.524;2022-08-21T00:43:01;95082.84;;;20.38;53.59
21182;BME280;10749;46.296;7.524;2022-08-21T00:45:27;95082.06;;;20.37;53.56
21182;BME280;10749;46.296;7.524;2022-08-21T00:47:53;95078.63;;;20.42;53.64
21182;BME280;10749;46.296;7.524;2022-08-21T00:50:20;95083.56;;;20.45;53.48
21182;BME280;10749;46.296;7.524;2022-08-21T00:52:45;95087.50;;;20.42;53.89
21182;BME280;10749;46.296;7.524;2022-08-21T00:55:12;95081.69;;;20.45;53.61
21182;BME280;10749;46.296;7.524;2022-08-21T00:57:44;95085.16;;;20.46;53.46
21182;BME280;10749;46.296;7.524;2022-08-21T01:00:15;95084.03;;;20.53;53.74
21182;BME280;10749;46.296;7.524;2022-08-21T01:02:41;95084.09;;;20.58;53.44
21182;BME280;10749;46.296;7.524;2022-08-21T01:05:08;95082.50;;;20.57;53.48
21182;BME280;10749;46.296;7.524;2022-08-21T01:07:33;95085.53;;;20.61;53.69
21182;BME280;10749;46.296;7.524;2022-08-21T01:09:59;95083.31;;;20.58;53.83
21182;BME280;10749;46.296;7.524;2022-08-21T01:12:25;95084.22;;;20.63;53.34
21182;BME280;10749;46.296;7.524;2022-08-21T01:14:50;95086.69;;;20.65;53.38
21182;BME280;10749;46.296;7.524;2022-08-21T01:17:16;95084.81;;;20.65;53.33
21182;BME280;10749;46.296;7.524;2022-08-21T01:19:42;95087.75;;;20.64;53.40
21182;BME280;10749;46.296;7.524;2022-08-21T01:22:08;95086.81;;;20.58;53.15
21182;BME280;10749;46.296;7.524;2022-08-21T01:24:34;95082.94;;;20.54;52.55
21182;BME280;10749;46.296;7.524;2022-08-21T01:27:00;95089.06;;;20.50;52.93
21182;BME280;10749;46.296;7.524;2022-08-21T01:29:32;95086.25;;;20.45;52.89
21182;BME280;10749;46.296;7.524;2022-08-21T01:32:04;95084.25;;;20.52;52.46
21182;BME280;10749;46.296;7.524;2022-08-21T01:34:30;95089.25;;;20.60;52.80
21182;BME280;10749;46.296;7.524;2022-08-21T01:36:55;95087.25;;;20.67;52.68
21182;BME280;10749;46.296;7.524;2022-08-21T01:39:21;95080.94;;;20.73;52.87
21182;BME280;10749;46.296;7.524;2022-08-21T01:41:46;95074.88;;;20.78;52.78
21182;BME280;10749;46.296;7.524;2022-08-21T01:44:11;95081.06;;;20.78;52.81
21182;BME280;10749;46.296;7.524;2022-08-21T01:46:38;95081.53;;;20.75;53.05
21182;BME280;10749;46.296;7.524;2022-08-21T01:49:04;95078.25;;;20.73;52.53
21182;BME280;10749;46.296;7.524;2022-08-21T01:51:29;95078.38;;;20.66;52.29
21182;BME280;10749;46.296;7.524;2022-08-21T01:53:55;95079.69;;;20.64;52.36
21182;BME280;10749;46.296;7.524;2022-08-21T01:56:20;95073.94;;;20.72;52.64
21182;BME280;10749;46.296;7.524;2022-08-21T01:58:47;95079.19;;;20.79;52.73
21182;BME280;10749;46.296;7.524;2022-08-21T02:01:12;95072.28;;;20.83;52.73
21182;BME280;10749;46.296;7.524;2022-08-21T02:03:39;95072.03;;;20.84;52.72
21182;BME280;10749;46.296;7.524;2022-08-21T02:06:06;95070.38;;;20.83;52.55
21182;BME280;10749;46.296;7.524;2022-08-21T02:08:32;95068.28;;;20.85;52.42
21182;BME280;10749;46.296;7.524;2022-08-21T02:10:58;95066.66;;;20.84;52.56
21182;BME280;10749;46.296;7.524;2022-08-21T02:13:25;95067.97;;;20.82;52.45
21182;BME280;10749;46.296;7.524;2022-08-21T02:15:50;95064.78;;;20.85;52.13
21182;BME280;10749;46.296;7.524;2022-08-21T02:18:15;95062.44;;;20.88;52.24
21182;BME280;10749;46.296;7.524;2022-08-21T02:20:44;95061.94;;;20.91;52.37
21182;BME280;10749;46.296;7.524;2022-08-21T02:23:11;95058.69;;;20.89;52.29
21182;BME280;10749;46.296;7.524;2022-08-21T02:25:37;95051.66;;;20.88;52.48
21182;BME280;10749;46.296;7.524;2022-08-21T02:28:06;95061.38;;;20.89;52.18
21182;BME280;10749;46.296;7.524;2022-08-21T02:30:35;95054.97;;;20.90;52.29
21182;BME280;10749;46.296;7.524;2022-08-21T02:33:03;95053.31;;;20.89;52.31
21182;BME280;10749;46.296;7.524;2022-08-21T02:35:29;95052.28;;;20.90;52.12
21182;BME280;10749;46.296;7.524;2022-08-21T02:38:03;95053.88;;;20.91;52.14
21182;BME280;10749;46.296;7.524;2022-08-21T02:40:32;95054.47;;;20.93;51.71
21182;BME280;10749;46.296;7.524;2022-08-21T02:42:59;95053.88;;;20.91;51.44
21182;BME280;10749;46.296;7.524;2022-08-21T02:45:25;95050.03;;;20.87;51.54
21182;BME280;10749;46.296;7.524;2022-08-21T02:47:52;95060.00;;;20.87;51.45
21182;BME280;10749;46.296;7.524;2022-08-21T02:50:21;95054.25;;;20.83;51.32
21182;BME280;10749;46.296;7.524;2022-08-21T02:52:48;95054.34;;;20.88;51.44
21182;BME280;10749;46.296;7.524;2022-08-21T02:55:14;95062.91;;;20.85;51.46
21182;BME280;10749;46.296;7.524;2022-08-21T02:57:39;95045.13;;;20.84;51.37
21182;BME280;10749;46.296;7.524;2022-08-21T03:00:05;95050.78;;;20.83;nan
21182;BME280;10749;46.296;7.524;2022-08-21T03:02:32;95047.25;;;20.82;51.23
21182;BME280;10749;46.296;7.524;2022-08-21T03:04:57;95046.09;;;20.78;51.11
21182;BME280;10749;46.296;7.524;2022-08-21T03:07:23;95039.91;;;20.78;51.28
21182;BME280;10749;46.296;7.524;2022-08-21T03:09:48;95046.56;;;20.75;51.37
21182;BME280;10749;46.296;7.524;2022-08-21T03:12:13;95041.78;;;20.77;51.38
21182;BME280;10749;46.296;7.524;2022-08-21T03:14:38;95043.97;;;20.80;51.47
21182;BME280;10749;46.296;7.524;2022-08-21T03:17:04;95043.97;;;20.80;51.39
21182;BME280;10749;46.296;7.524;2022-08-21T03:19:30;95043.63;;;20.77;51.44
21182;BME280;10749;46.296;7.524;2022-08-21T03:21:55;95045.50;;;20.76;51.50
21182;BME280;10749;46.296;7.524;2022-08-21T03:24:20;95041.16;;;20.75;51.40
21182;BME280;10749;46.296;7.524;2022-08-21T03:26:46;95042.25;;;20.74;51.58
21182;BME280;10749;46.296;7.524;2022-08-21T03:29:11;95042.25;;;20.74;51.56
21182;BME280;10749;46.296;7.524;2022-08-21T03:31:36;95042.81;;;20.76;51.71
21182;BME280;10749;46.296;7.524;2022-08-21T03:34:02;95039.41;;;20.81;51.97
21182;BME280;10749;46.296;7.524;2022-08-21T03:36:27;95041.28;;;20.80;52.24
21182;BME280;10749;46.296;7.524;2022-08-21T03:38:52;95038.03;;;20.78;52.33
21182;BME280;10749;46.296;7.524;2022-08-21T03:41:18;95043.50;;;20.83;52.09
21182;BME280;10749;46.296;7.524;2022-08-21T03:43:43;95035.19;;;20.85;52.15
21182;BME280;10749;46.296;7.524;2022-08-21T03:46:09;95039.19;;;20.82;52.23
21182;BME280;10749;46.296;7.524;2022-08-21T03:48:38;95038.25;;;20.77;52.06
21182;BME280;10749;46.296;7.524;2022-08-21T03:51:04;95043.06;;;20.75;51.99
21182;BME280;10749;46.296;7.524;2022-08-21T03:53:29;95040.59;;;20.73;52.31
21182;BME280;10749;46.296;7.524;2022-08-21T03:55:55;95045.41;;;20.71;52.58
21182;BME280;10749;46.296;7.524;2022-08-21T03:58:24;95043.78;;;20.70;52.29
21182;BME280;10749;46.296;7.524;2022-08-21T04:00:52;95044.84;;;20.69;52.67
21182;BME280;10749;46.296;7.524;2022-08-21T04:03:18;95048.78;;;20.66;52.61
21182;BME280;10749;46.296;7.524;2022-08-21T04:05:44;95049.63;;;20.67;52.74
21182;BME280;10749;46.296;7.524;2022-08-21T04:08:11;95044.72;;;20.64;52.80
21182;BME280;10749;46.296;7.524;2022-08-21T04:10:38;95049.53;;;20.62;52.58
21182;BME280;10749;46.296;7.524;2022-08-21T04:13:05;95052.22;;;20.62;52.96
21182;BME280;10749;46.296;7.524;2022-08-21T04:15:31;95047.88;;;20.61;53.07
21182;BME280;10749;46.296;7.524;2022-08-21T04:17:57;95039.81;;;20.61;53.26
21182;BME280;10749;46.296;7.524;2022-08-21T04:20:23;95050.31;;;20.62;53.30
21182;BME280;10749;46.296;7.524;2022-08-21T04:22:49;95054.09;;;20.61;53.54
21182;BME280;10749;46.296;7.524;2022-08-21T04:25:16;95044.84;;;20.57;53.21
21182;BME280;10749;46.296;7.524;2022-08-21T04:27:41;95042.38;;;20.56;53.67
21182;BME280;10749;46.296;7.524;2022-08-21T04:30:08;95042.38;;;20.56;53.83
21182;BME280;10749;46.296;7.524;2022-08-21T04:32:35;95041.91;;;20.59;53.76
21182;BME280;10749;46.296;7.524;2022-08-21T04:35:03;95038.66;;;20.57;53.84
21182;BME280;10749;46.296;7.524;2022-08-21T04:37:29;95049.41;;;20.57;53.62
21182;BME280;10749;46.296;7.524;2022-08-21T04:39:55;95048.59;;;20.56;53.53
21182;BME280;10749;46.296;7.524;2022-08-21T04:42:26;95048.00;;;20.54;53.73
21182;BME280;10749;46.296;7.524;2022-08-21T04:44:52;95051.06;;;20.58;53.76
21182;BME280;10749;46.296;7.524;2022-08-21T04:47:17;95043.56;;;20.60;53.81
21182;BME280;10749;46.296;7.524;2022-08-21T04:49:44;95056.53;;;20.63;53.86
21182;BME280;10749;46.296;7.524;2022-08-21T04:52:11;95051.13;;;20.63;53.74
21182;BME280;10749;46.296;7.524;2022-08-21T04:54:39;95049.53;;;20.62;53.92
21182;BME280;10749;46.296;7.524;2022-08-21T04:57:06;95047.28;;;20.59;54.00
21182;BME280;10749;46.296;7.524;2022-08-21T04:59:45;95047.41;;;20.64;54.08
21182;BME280;10749;46.296;7.524;2022-08-21T05:02:12;95048.94;;;20.60;54.33
21182;BME280;10749;46.296;7.524;2022-08-21T05:04:43;95046.84;;;20.62;54.02
21182;BME280;10749;46.296;7.524;2022-08-21T05:07:14;95054.91;;;20.62;54.15
21182;BME280;10749;46.296;7.524;2022-08-21T05:09:40;95050.31;;;20.62;54.28
21182;BME280;10749;46.296;7.524;2022-08-21T05:12:06;95051.06;;;20.58;54.39
21182;BME280;10749;46.296;7.524;2022-08-21T05:14:31;95054.19;;;20.55;54.44
21182;BME280;10749;46.296;7.524;2022-08-21T05:16:57;95050.81;;;20.59;54.36
21182;BME280;10749;46.296;7.524;2022-08-21T05:19:22;95059.81;;;20.65;54.19
21182;BME280;10749;46.296;7.524;2022-08-21T05:21:48;95055.47;;;20.64;54.68
21182;BME280;10749;46.296;7.524;2022-08-21T05:24:14;95054.53;;;20.70;54.42
21182;BME280;10749;46.296;7.524;2022-08-21T05:26:40;95054.53;;;20.70;54.50
21182;BME280;10749;46.296;7.524;2022-08-21T05:29:05;95059.44;;;20.73;54.87
21182;BME280;10749;46.296;7.524;2022-08-21T05:31:31;95058.13;;;20.76;54.75
21182;BME280;10749;46.296;7.524;2022-08-21T05:33:56;95054.16;;;20.78;54.75
21182;BME280;10749;46.296;7.524;2022-08-21T05:36:22;95054.72;;;20.80;54.60
21182;BME280;10749;46.296;7.524;2022-08-21T05:38:47;95054.25;;;20.83;54.31
21182;BME280;10749;46.296;7.524;2022-08-21T05:41:13;95056.25;;;20.76;53.99
21182;BME280;10749;46.296;7.524;2022-08-21T05:43:38;95054.16;;;20.66;54.10
21182;BME280;10749;46.296;7.524;2022-08-21T05:46:04;95054.16;;;20.66;54.10
21182;BME280;10749;46.296;7.524;2022-08-21T05:48:30;95058.47;;;20.79;54.35
21182;BME280;10749;46.296;7.524;2022-08-21T05:50:56;95054.97;;;20.90;54.48
21182;BME280;10749;46.296;7.524;2022-08-21T05:53:23;95059.84;;;20.93;54.60
21182;BME280;10749;46.296;7.524;2022-08-21T05:55:49;95060.78;;;20.87;54.25
21182;BME280;10749;46.296;7.524;2022-08-21T05:58:17;95061.50;;;20.94;53.94
21182;BME280;10749;46.296;7.524;2022-08-21T06:00:44;95060.53;;;21.00;54.21
21182;BME280;10749;46.296;7.524;2022-08-21T06:03:17;95067.06;;;21.04;53.97
21182;BME280;10749;46.296;7.524;2022-08-21T06:05:43;95062.50;;;21.05;54.28
21182;BME280;10749;46.296;7.524;2022-08-21T06:08:08;95066.59;;;21.07;54.13
21182;BME280;10749;46.296;7.524;2022-08-21T06:10:34;95072.69;;;21.14;54.16
21182;BME280;10749;46.296;7.524;2022-08-21T06:12:59;95060.50;;;21.24;53.87
21182;BME280;10749;46.296;7.524;2022-08-21T06:15:25;95066.22;;;21.27;53.89
21182;BME280;10749;46.296;7.524;2022-08-21T06:17:52;95072.97;;;21.30;54.05
21182;BME280;10749;46.296;7.524;2022-08-21T06:20:17;95061.66;;;21.28;54.00
21182;BME280;10749;46.296;7.524;2022-08-21T06:22:42;95056.59;;;21.31;53.78
21182;BME280;10749;46.296;7.524;2022-08-21T06:25:08;95058.56;;;21.36;53.73
21182;BME280;10749;46.296;7.524;2022-08-21T06:27:34;95057.75;;;21.35;53.49
21182;BME280;10749;46.296;7.524;2022-08-21T06:29:59;95051.53;;;21.35;53.72
21182;BME280;10749;46.296;7.524;2022-08-21T06:32:24;95051.53;;;21.35;53.17
21182;BME280;10749;46.296;7.524;2022-08-21T06:34:50;95048.25;;;21.33;53.35
21182;BME280;10749;46.296;7.524;2022-08-21T06:37:16;95044.06;;;21.37;53.21
21182;BME280;10749;46.296;7.524;2022-08-21T06:39:41;95045.03;;;21.47;53.32
21182;BME280;10749;46.296;7.524;2022-08-21T06:42:13;95043.09;;;21.59;53.25
21182;BME280;10749;46.296;7.524;2022-08-21T06:44:38;95043.69;;;21.78;52.93
21182;BME280;10749;46.296;7.524;2022-08-21T06:47:03;95034.31;;;21.81;52.64
21182;BME280;10749;46.296;7.524;2022-08-21T06:49:29;95039.53;;;21.87;52.78
21182;BME280;10749;46.296;7.524;2022-08-21T06:51:54;95030.88;;;21.85;52.68
21182;BME280;10749;46.296;7.524;2022-08-21T06:54:19;95040.28;;;21.99;52.65
21182;BME280;10749;46.296;7.524;2022-08-21T06:56:45;95033.84;;;22.17;52.58
21182;BME280;10749;46.296;7.524;2022-08-21T06:59:11;95024.16;;;22.38;52.67
21182;BME280;10749;46.296;7.524;2022-08-21T07:01:36;95028.97;;;22.52;52.72
21182;BME280;10749;46.296;7.524;2022-08-21T07:04:02;95026.31;;;22.58;52.52
21182;BME280;10749;46.296;7.524;2022-08-21T07:06:27;95023.47;;;22.64;52.29
21182;BME280;10749;46.296;7.524;2022-08-21T07:08:52;95020.66;;;22.76;52.42
21182;BME280;10749;46.296;7.524;2022-08-21T07:11:20;95019.84;;;22.75;51.77
21182;BME280;10749;46.296;7.524;2022-08-21T07:13:47;95018.88;;;22.81;52.21
21182;BME280;10749;46.296;7.524;2022-08-21T07:16:13;95013.25;;;22.88;51.92
21182;BME280;10749;46.296;7.524;2022-08-21T07:18:39;95008.25;;;22.58;51.37
21182;BME280;10749;46.296;7.524;2022-08-21T07:21:05;95000.69;;;22.55;51.53
21182;BME280;10749;46.296;7.524;2022-08-21T07:23:34;94999.00;;;22.71;51.62
21182;BME280;10749;46.296;7.524;2022-08-21T07:26:00;95005.31;;;22.76;51.16
21182;BME280;10749;46.296;7.524;2022-08-21T07:28:26;94998.53;;;22.57;51.19
21182;BME280;10749;46.296;7.524;2022-08-21T07:30:54;94990.09;;;22.70;51.59
21182;BME280;10749;46.296;7.524;2022-08-21T07:33:20;94992.25;;;22.90;51.56
21182;BME280;10749;46.296;7.524;2022-08-21T07:35:46;94987.00;;;23.05;51.53
21182;BME280;10749;46.296;7.524;2022-08-21T07:38:11;94986.31;;;23.15;51.31
21182;BME280;10749;46.296;7.524;2022-08-21T07:40:36;94985.75;;;23.13;51.01
21182;BME280;10749;46.296;7.524;2022-08-21T07:43:02;94986.19;;;23.05;51.08
21182;BME280;10749;46.296;7.524;2022-08-21T07:45:28;94984.00;;;23.02;51.12
21182;BME280;10749;46.296;7.524;2022-08-21T07:47:53;94982.28;;;23.17;50.89
21182;BME280;10749;46.296;7.524;2022-08-21T07:50:19;94986.81;;;23.12;50.87
21182;BME280;10749;46.296;7.524;2022-08-21T07:52:45;94980.50;;;23.28;51.07
21182;BME280;10749;46.296;7.524;2022-08-21T07:55:13;94981.22;;;23.45;51.05
21182;BME280;10749;46.296;7.524;2022-08-21T07:57:40;94976.84;;;23.39;50.08
21182;BME280;10749;46.296;7.524;2022-08-21T08:00:08;94981.22;;;23.45;50.63
21182;BME280;10749;46.296;7.524;2022-08-21T08:02:34;94974.81;;;23.51;50.40
21182;BME280;10749;46.296;7.524;2022-08-21T08:05:06;94964.63;;;23.58;50.33
21182;BME280;10749;46.296;7.524;2022-08-21T08:07:32;94963.81;;;23.31;49.58
21182;BME280;10749;46.296;7.524;2022-08-21T08:09:57;94963.38;;;23.44;50.00
21182;BME280;10749;46.296;7.524;2022-08-21T08:12:23;94955.28;;;23.44;49.87
21182;BME280;10749;46.296;7.524;2022-08-21T08:14:58;94960.75;;;23.49;49.71
21182;BME280;10749;46.296;7.524;2022-08-21T08:17:24;94951.69;;;23.60;49.84
21182;BME280;10749;46.296;7.524;2022-08-21T08:19:50;94947.59;;;23.58;49.37
21182;BME280;10749;46.296;7.524;2022-08-21T08:22:17;94944.13;;;23.62;49.37
21182;BME280;10749;46.296;7.524;2022-08-21T08:24:44;94930.06;;;23.60;49.28
21182;BME280;10749;46.296;7.524;2022-08-21T08:27:10;94926.88;;;23.68;49.69
21182;BME280;10749;46.296;7.524;2022-08-21T08:29:35;94929.16;;;23.86;49.87
21182;BME280;10749;46.296;7.524;2022-08-21T08:32:00;94921.91;;;23.92;49.79
21182;BME280;10749;46.296;7.524;2022-08-21T08:34:26;94920.06;;;24.03;49.58
21182;BME280;10749;46.296;7.524;2022-08-21T08:36:52;94922.84;;;24.13;49.57
21182;BME280;10749;46.296;7.524;2022-08-21T08:39:17;94913.75;;;24.24;49.24
21182;BME280;10749;46.296;7.524;2022-08-21T08:41:44;94914.28;;;24.21;48.33
21182;BME280;10749;46.296;7.524;2022-08-21T08:44:12;94908.91;;;24.26;48.76
21182;BME280;10749;46.296;7.524;2022-08-21T08:46:43;94908.41;;;24.34;49.09
21182;BME280;10749;46.296;7.524;2022-08-21T08:49:36;94897.50;;;24.24;48.14
21182;BME280;10749;46.296;7.524;2022-08-21T08:52:15;94895.81;;;24.13;48.93
21182;BME280;10749;46.296;7.524;2022-08-21T08:54:47;94885.88;;;24.23;48.35
21182;BME280;10749;46.296;7.524;2022-08-21T08:57:20;94882.44;;;24.38;48.81
21182;BME280;10749;46.296;7.524;2022-08-21T08:59:51;94881.38;;;24.39;48.47
21182;BME280;10749;46.296;7.524;2022-08-21T09:02:18;94874.03;;;24.29;47.82
21182;BME280;10749;46.296;7.524;2022-08-21T09:04:45;94875.34;;;24.27;48.37
21182;BME280;10749;46.296;7.524;2022-08-21T09:21:18;94857.63;;;24.51;47.75
21182;BME280;10749;46.296;7.524;2022-08-21T09:24:00;94855.69;;;24.52;47.77
21182;BME280;10749;46.296;7.524;2022-08-21T09:26:31;94853.31;;;24.55;47.47
21182;BME280;10749;46.296;7.524;2022-08-21T09:29:00;94858.69;;;24.60;47.76
21182;BME280;10749;46.296;7.524;2022-08-21T09:31:31;94853.84;;;24.57;47.53
21182;BME280;10749;46.296;7.524;2022-08-21T09:34:00;94848.44;;;24.62;47.38
21182;BME280;10749;46.296;7.524;2022-08-21T09:36:49;94851.16;;;24.62;47.22
21182;BME280;10749;46.296;7.524;2022-08-21T09:39:30;94841.94;;;24.58;47.27
21182;BME280;10749;46.296;7.524;2022-08-21T09:42:05;94838.66;;;24.56;46.69
21182;BME280;10749;46.296;7.524;2022-08-21T09:44:34;94838.16;;;24.64;46.67
21182;BME280;10749;46.296;7.524;2022-08-21T09:47:01;94832.72;;;24.54;44.25
21182;BME280;10749;46.296;7.524;2022-08-21T09:49:35;94834.09;;;24.62;46.00
21182;BME280;10749;46.296;7.524;2022-08-21T09:52:01;94831.91;;;24.54;44.85
21182;BME280;10749;46.296;7.524;2022-08-21T09:54:37;94830.59;;;24.66;45.73
21182;BME280;10749;46.296;7.524;2022-08-21T09:59:54;94820.34;;;24.83;45.53
21182;BME280;10749;46.296;7.524;2022-08-21T10:02:34;94819.25;;;24.79;45.83
21182;BME280;10749;46.296;7.524;2022-08-21T10:05:14;94818.75;;;24.88;45.58
21182;BME280;10749;46.296;7.524;2022-08-21T10:07:41;94819.84;;;24.97;45.32
21182;BME280;10749;46.296;7.524;2022-08-21T10:10:22;94810.63;;;25.03;45.37
21182;BME280;10749;46.296;7.524;2022-08-21T10:12:50;94815.81;;;25.09;45.44
21182;BME280;10749;46.296;7.524;2022-08-21T10:20:49;94791.69;;;25.38;45.19
21182;BME280;10749;46.296;7.524;2022-08-21T10:29:30;94773.22;;;25.65;44.27
21182;BME280;10749;46.296;7.524;2022-08-21T10:32:05;94769.97;;;25.68;44.81
21182;BME280;10749;46.296;7.524;2022-08-21T10:34:59;94758.31;;;25.73;44.86
21182;BME280;10749;46.296;7.524;2022-08-21T10:37:57;94757.72;;;25.91;44.73
21182;BME280;10749;46.296;7.524;2022-08-21T10:48:24;94726.09;;;26.31;43.80
21182;BME280;10749;46.296;7.524;2022-08-21T10:51:04;94724.41;;;26.40;44.02
21182;BME280;10749;46.296;7.524;2022-08-21T10:56:41;94725.34;;;26.59;43.66
21182;BME280;10749;46.296;7.524;2022-08-21T11:01:48;94707.69;;;26.67;43.64
21182;BME280;10749;46.296;7.524;2022-08-21T11:04:37;94697.53;;;26.77;43.82
21182;BME280;10749;46.296;7.524;2022-08-21T11:07:18;94693.50;;;26.75;42.50
21182;BME280;10749;46.296;7.524;2022-08-21T11:09:47;94682.88;;;26.78;42.43
21182;BME280;10749;46.296;7.524;2022-08-21T11:12:24;94676.53;;;26.93;42.65
21182;BME280;10749;46.296;7.524;2022-08-21T11:17:22;94678.50;;;27.16;42.63
21182;BME280;10749;46.296;7.524;2022-08-21T11:19:58;94678.50;;;27.16;42.04
21182;BME280;10749;46.296;7.524;2022-08-21T11:25:22;94671.31;;;27.25;41.64
21182;BME280;10749;46.296;7.524;2022-08-21T11:28:08;94666.38;;;27.32;41.60
21182;BME280;10749;46.296;7.524;2022-08-21T11:31:00;94673.84;;;27.45;41.10
21182;BME280;10749;46.296;7.524;2022-08-21T11:33:47;94652.66;;;27.47;41.09
21182;BME280;10749;46.296;7.524;2022-08-21T11:36:38;94656.56;;;27.60;41.17
21182;BME280;10749;46.296;7.524;2022-08-21T11:45:01;94644.13;;;27.96;40.79
21182;BME280;10749;46.296;7.524;2022-08-21T11:47:31;94628.97;;;28.14;40.23
21182;BME280;10749;46.296;7.524;2022-08-21T11:50:13;94626.81;;;28.30;40.31
21182;BME280;10749;46.296;7.524;2022-08-21T11:52:49;94632.13;;;28.40;40.43
21182;BME280;10749;46.296;7.524;2022-08-21T11:55:26;94620.56;;;28.48;40.26
21182;BME280;10749;46.296;7.524;2022-08-21T12:00:31;94617.84;;;28.48;39.42
21182;BME280;10749;46.296;7.524;2022-08-21T12:03:07;94608.19;;;28.56;39.08
21182;BME280;10749;46.296;7.524;2022-08-21T12:05:37;94614.88;;;28.63;39.03
21182;BME280;10749;46.296;7.524;2022-08-21T12:08:09;94598.59;;;28.77;38.88
21182;BME280;10749;46.296;7.524;2022-08-21T12:10:40;94598.00;;;28.80;38.85
21182;BME280;10749;46.296;7.524;2022-08-21T12:13:09;94599.03;;;28.84;38.16
21182;BME280;10749;46.296;7.524;2022-08-21T12:15:36;94587.75;;;28.91;38.14
21182;BME280;10749;46.296;7.524;2022-08-21T12:23:29;94580.91;;;29.07;37.44
21182;BME280;10749;46.296;7.524;2022-08-21T12:26:17;94581.84;;;29.29;37.67
21182;BME280;10749;46.296;7.524;2022-08-21T12:28:45;94585.06;;;29.45;37.66
21182;BME280;10749;46.296;7.524;2022-08-21T12:31:19;94566.28;;;29.57;37.45
21182;BME280;10749;46.296;7.524;2022-08-21T12:33:52;94570.00;;;29.61;37.06
21182;BME280;10749;46.296;7.524;2022-08-21T12:36:22;94568.91;;;29.62;36.58
21182;BME280;10749;46.296;7.524;2022-08-21T12:39:04;94559.34;;;29.65;36.68
21182;BME280;10749;46.296;7.524;2022-08-21T12:41:49;94565.94;;;29.86;37.11
21182;BME280;10749;46.296;7.524;2022-08-21T12:44:21;94560.56;;;30.08;37.14
21182;BME280;10749;46.296;7.524;2022-08-21T12:46:54;94559.81;;;30.16;36.55
21182;BME280;10749;46.296;7.524;2022-08-21T12:49:35;94562.91;;;30.23;36.21
21182;BME280;10749;46.296;7.524;2022-08-21T12:52:32;94567.63;;;30.32;35.80
21182;BME280;10749;46.296;7.524;2022-08-21T12:54:58;94553.75;;;30.42;35.91
21182;BME280;10749;46.296;7.524;2022-08-21T12:57:29;94554.88;;;30.41;35.51
21182;BME280;10749;46.296;7.524;2022-08-21T12:59:57;94551.00;;;30.55;35.77
21182;BME280;10749;46.296;7.524;2022-08-21T13:02:26;94554.78;;;30.68;35.42
21182;BME280;10749;46.296;7.524;2022-08-21T13:04:53;94552.16;;;30.63;34.98
21182;BME280;10749;46.296;7.524;2022-08-21T13:07:29;94532.31;;;30.49;33.03
21182;BME280;10749;46.296;7.524;2022-08-21T13:10:02;94539.50;;;30.45;33.11
21182;BME280;10749;46.296;7.524;2022-08-21T13:12:30;94541.47;;;30.53;33.14
21182;BME280;10749;46.296;7.524;2022-08-21T13:14:59;94534.47;;;30.60;33.49
21182;BME280;10749;46.296;7.524;2022-08-21T13:17:26;94546.81;;;30.80;32.76
21182;BME280;10749;46.296;7.524;2022-08-21T13:20:00;94537.69;;;30.62;32.29
21182;BME280;10749;46.296;7.524;2022-08-21T13:22:27;94521.13;;;30.37;32.82
21182;BME280;10749;46.296;7.524;2022-08-21T13:24:53;94525.09;;;30.31;33.07
21182;BME280;10749;46.296;7.524;2022-08-21T13:27:25;94523.72;;;29.97;32.40
21182;BME280;10749;46.296;7.524;2022-08-21T13:30:13;94525.56;;;29.74;33.32
21182;BME280;10749;46.296;7.524;2022-08-21T13:32:43;94518.94;;;29.53;32.75
21182;BME280;10749;46.296;7.524;2022-08-21T13:35:14;94510.16;;;29.43;32.56
21182;BME280;10749;46.296;7.524;2022-08-21T13:37:41;94510.06;;;29.48;31.88
21182;BME280;10749;46.296;7.524;2022-08-21T13:40:12;94512.91;;;29.43;31.83
21182;BME280;10749;46.296;7.524;2022-08-21T13:42:41;94500.34;;;29.55;32.33
21182;BME280;10749;46.296;7.524;2022-08-21T13:45:13;94502.81;;;29.93;31.96
21182;BME280;10749;46.296;7.524;2022-08-21T13:47:39;94499.53;;;30.27;31.22
21182;BME280;10749;46.296;7.524;2022-08-21T13:50:05;94497.63;;;30.49;30.58
21182;BME280;10749;46.296;7.524;2022-08-21T13:52:32;94505.84;;;30.80;31.16
21182;BME280;10749;46.296;7.524;2022-08-21T13:55:13;94507.03;;;30.96;30.56
21182;BME280;10749;46.296;7.524;2022-08-21T13:57:40;94493.75;;;31.03;30.18
21182;BME280;10749;46.296;7.524;2022-08-21T14:00:26;94495.69;;;31.11;29.89
21182;BME280;10749;46.296;7.524;2022-08-21T14:02:52;94492.84;;;31.25;29.68
21182;BME280;10749;46.296;7.524;2022-08-21T14:05:26;94486.91;;;31.32;29.36
21182;BME280;10749;46.296;7.524;2022-08-21T14:08:09;94495.69;;;31.59;30.05
21182;BME280;10749;46.296;7.524;2022-08-21T14:10:46;94485.72;;;31.89;30.56